Sunday, April 22, 2018, 9:28 PM EDT
Back to Local

KELZ, Wellsville Municipal Airport

Location: Wellsville, NY, United States Lat: 42.1
Local Time: 9:28 PM EDT ( 1:28 GMT) Lon: -78
Time Zone: US/Eastern Elev: 2122 ft

Show me the last for .
Show Decoded

2018-04-22 20:56 METAR KELZ 230056Z AUTO 07005KT 10SM CLR 09/M07 A3038 RMK AO2 SLP297 T00941072 $
                 =
2018-04-22 19:56 METAR KELZ 222356Z AUTO 04004KT 10SM CLR 12/M08 A3036 RMK AO2 SLP292 T01171083
                 10161 20117 53004 $ =
2018-04-22 18:56 METAR KELZ 222256Z AUTO 08005KT 10SM CLR 14/M08 A3035 RMK AO2 SLP288 T01391083 $
                 =
2018-04-22 17:56 METAR KELZ 222156Z AUTO 05005KT 10SM CLR 15/M09 A3035 RMK AO2 SLP287 T01501089 $
                 =
2018-04-22 16:56 METAR KELZ 222056Z AUTO 09009KT 10SM CLR 16/M08 A3035 RMK AO2 SLP287 T01561083
                 56011 $ =
2018-04-22 15:56 METAR KELZ 221956Z AUTO 12007KT 10SM CLR 15/M09 A3036 RMK AO2 SLP291 T01501089 $
                 =
2018-04-22 14:56 METAR KELZ 221856Z AUTO 13007KT 080V180 10SM CLR 14/M10 A3037 RMK AO2 SLP296
                 T01441100 $ =
2018-04-22 13:56 METAR KELZ 221756Z AUTO 11005KT 10SM CLR 15/M09 A3038 RMK AO2 SLP298 T01501089
                 10156 20028 56015 $ =
2018-04-22 12:56 METAR KELZ 221656Z AUTO VRB03KT 10SM CLR 14/M08 A3040 RMK AO2 SLP301 T01391083 $
                 =
2018-04-22 11:56 METAR KELZ 221556Z AUTO VRB04KT 10SM CLR 13/M10 A3042 RMK AO2 SLP309 T01281100 $
                 =
2018-04-22 10:56 METAR KELZ 221456Z AUTO 13006KT 10SM CLR 11/M08 A3043 RMK AO2 SLP315 T01111078
                 50006 $ =
2018-04-22 09:56 METAR KELZ 221356Z AUTO 12004KT 10SM CLR 09/M06 A3043 RMK AO2 SLP318 T00941056 $
                 =
2018-04-22 08:56 METAR KELZ 221256Z AUTO 00000KT 10SM CLR 07/M03 A3043 RMK AO2 SLP317 T00671028 $
                 =
2018-04-22 07:56 METAR KELZ 221156Z AUTO 00000KT 10SM CLR 03/M03 A3041 RMK AO2 SLP313 T00331033
                 10033 21011 53010 $ =
2018-04-22 06:56 METAR KELZ 221056Z AUTO 00000KT 10SM CLR M01/M05 A3040 RMK AO2 SLP311 T10111050
                 $ =
2018-04-22 05:56 METAR KELZ 220956Z AUTO 00000KT 10SM CLR 01/M06 A3039 RMK AO2 SLP306 T00061061 $
                 =
2018-04-22 04:56 METAR KELZ 220856Z AUTO 00000KT 10SM CLR 01/M06 A3038 RMK AO2 SLP302 T00061056
                 55004 $ =
2018-04-22 03:56 METAR KELZ 220756Z AUTO 00000KT 10SM CLR 01/M06 A3038 RMK AO2 SLP300 T00061056 $
                 =
2018-04-22 02:56 METAR KELZ 220656Z AUTO 00000KT 10SM CLR 01/M06 A3039 RMK AO2 SLP303 T00111061 $
                 =
2018-04-22 01:56 METAR KELZ 220556Z AUTO 00000KT 10SM CLR 02/M06 A3039 RMK AO2 SLP305 T00221061
                 10072 20022 55000 $ =
2018-04-22 00:56 METAR KELZ 220456Z AUTO 00000KT 10SM CLR 04/M07 A3039 RMK AO2 SLP304 T00441067
                 401221033 $ =
2018-04-21 23:56 METAR KELZ 220356Z AUTO 00000KT 10SM CLR 05/M07 A3039 RMK AO2 SLP304 T00501067 $
                 =
2018-04-21 22:56 METAR KELZ 220256Z AUTO 32003KT 10SM CLR 06/M07 A3039 RMK AO2 SLP306 T00561067
                 51008 $ =
2018-04-21 21:56 METAR KELZ 220156Z AUTO 31005KT 10SM CLR 05/M06 A3039 RMK AO2 SLP306 T00501056 $
                 =

Support USWX by starting your Amazon purchase here.